createdAt,value
2023-10-13T00:02:10.221Z,10.33
2023-10-13T00:04:38.794Z,10.35
2023-10-13T00:07:10.879Z,10.30
2023-10-13T00:09:39.824Z,10.29
2023-10-13T00:12:11.644Z,10.31
2023-10-13T00:14:40.726Z,10.28
2023-10-13T00:17:09.690Z,10.29
2023-10-13T00:19:39.769Z,10.25
2023-10-13T00:22:11.259Z,10.32
2023-10-13T00:24:44.384Z,10.33
2023-10-13T00:27:31.765Z,10.29
2023-10-13T00:30:17.225Z,10.24
2023-10-13T00:32:57.320Z,10.27
2023-10-13T00:35:37.186Z,10.27
2023-10-13T00:38:14.166Z,10.23
2023-10-13T00:40:54.282Z,10.22
2023-10-13T00:43:24.134Z,10.23
2023-10-13T00:46:09.650Z,10.20
2023-10-13T00:49:05.764Z,10.18
2023-10-13T00:51:36.434Z,10.22
2023-10-13T00:54:15.053Z,10.21
2023-10-13T00:57:10.264Z,10.19
2023-10-13T00:59:39.563Z,10.19
2023-10-13T01:02:26.337Z,10.22
2023-10-13T01:04:56.127Z,10.25
2023-10-13T01:07:25.996Z,10.24
2023-10-13T01:09:53.693Z,10.28
2023-10-13T01:12:23.802Z,10.28
2023-10-13T01:14:52.277Z,10.36
2023-10-13T01:17:20.439Z,10.33
2023-10-13T01:19:50.717Z,10.36
2023-10-13T01:22:19.013Z,10.36
2023-10-13T01:24:47.241Z,10.35
2023-10-13T01:27:26.833Z,10.33
2023-10-13T01:30:00.494Z,10.30
2023-10-13T01:32:30.882Z,10.34
2023-10-13T01:35:28.994Z,10.35
2023-10-13T01:37:56.625Z,10.39
2023-10-13T01:40:35.269Z,10.38
2023-10-13T01:43:05.993Z,10.38
2023-10-13T01:45:33.981Z,10.42
2023-10-13T01:48:03.037Z,10.41
2023-10-13T01:50:31.712Z,10.38
2023-10-13T01:53:15.404Z,10.40
2023-10-13T01:55:46.218Z,10.50
2023-10-13T01:58:19.696Z,10.55
2023-10-13T02:00:49.409Z,10.53
2023-10-13T02:03:18.813Z,10.59
2023-10-13T02:05:55.846Z,10.68
2023-10-13T02:08:27.665Z,10.71
2023-10-13T02:10:59.037Z,10.78
2023-10-13T02:13:27.929Z,10.81
2023-10-13T02:16:05.308Z,10.83
2023-10-13T02:18:42.979Z,10.87
2023-10-13T02:21:14.619Z,10.93
2023-10-13T02:23:47.130Z,10.89
2023-10-13T02:26:32.074Z,10.97
2023-10-13T02:29:06.140Z,10.98
2023-10-13T02:31:37.418Z,10.96
2023-10-13T02:34:09.542Z,10.95
2023-10-13T02:36:38.194Z,10.97
2023-10-13T02:39:09.977Z,10.96
2023-10-13T02:41:41.439Z,10.97
2023-10-13T02:44:21.192Z,10.91
2023-10-13T02:46:51.959Z,10.89
2023-10-13T02:49:47.792Z,10.87
2023-10-13T02:52:49.577Z,10.81
2023-10-13T02:55:26.844Z,10.91
2023-10-13T02:57:57.664Z,10.94
2023-10-13T03:00:32.786Z,10.93
2023-10-13T03:03:00.832Z,10.84
2023-10-13T03:05:31.414Z,10.96
2023-10-13T03:08:00.288Z,10.95
2023-10-13T03:10:31.217Z,10.99
2023-10-13T03:12:59.770Z,10.99
2023-10-13T03:15:49.386Z,11.05
2023-10-13T03:18:20.257Z,11.09
2023-10-13T03:20:53.078Z,11.09
2023-10-13T03:23:21.275Z,11.07
2023-10-13T03:25:56.968Z,11.07
2023-10-13T03:28:30.559Z,11.11
2023-10-13T03:31:03.028Z,11.12
2023-10-13T03:33:34.494Z,11.13
2023-10-13T03:36:07.446Z,11.17
2023-10-13T03:38:38.182Z,11.18
2023-10-13T03:41:13.479Z,11.21
2023-10-13T03:43:54.212Z,11.21
2023-10-13T03:46:23.761Z,11.23
2023-10-13T03:49:03.363Z,11.23
2023-10-13T03:51:35.249Z,11.23
2023-10-13T03:54:09.348Z,11.22
2023-10-13T03:56:41.389Z,11.17
2023-10-13T03:59:11.584Z,11.22
2023-10-13T04:01:47.462Z,11.23
2023-10-13T04:04:37.516Z,11.26
2023-10-13T04:07:09.158Z,11.35
2023-10-13T04:09:38.341Z,11.42
2023-10-13T04:12:15.335Z,11.49
2023-10-13T04:15:05.258Z,11.60
2023-10-13T04:17:42.313Z,11.76
2023-10-13T04:20:12.201Z,11.90
2023-10-13T04:22:48.586Z,12.04
2023-10-13T04:25:45.049Z,12.16
2023-10-13T04:28:16.527Z,12.28
2023-10-13T04:30:59.362Z,12.40
2023-10-13T04:33:46.317Z,12.49
2023-10-13T04:36:18.103Z,12.55
2023-10-13T04:39:01.942Z,12.65
2023-10-13T04:41:46.705Z,12.73
2023-10-13T04:44:32.102Z,12.85
2023-10-13T04:47:01.611Z,12.91
2023-10-13T04:49:51.505Z,13.00
2023-10-13T04:52:39.007Z,13.03
2023-10-13T04:55:40.116Z,13.08
2023-10-13T04:58:37.168Z,13.09
2023-10-13T05:01:24.235Z,13.19
2023-10-13T05:03:55.650Z,13.28
2023-10-13T05:06:44.259Z,13.27
2023-10-13T05:09:31.855Z,13.31
2023-10-13T05:12:18.478Z,13.34
2023-10-13T05:15:04.984Z,13.42
2023-10-13T05:17:51.751Z,13.45
2023-10-13T05:20:37.741Z,13.57
2023-10-13T05:23:23.964Z,13.66
2023-10-13T05:26:10.432Z,13.68
2023-10-13T05:28:57.283Z,13.76
2023-10-13T05:31:44.429Z,13.88
2023-10-13T05:34:30.958Z,14.11
2023-10-13T05:37:18.467Z,14.43
2023-10-13T05:40:04.917Z,14.80
2023-10-13T05:42:51.894Z,15.33
2023-10-13T05:45:20.098Z,15.72
2023-10-13T05:47:49.116Z,15.85
2023-10-13T05:50:23.313Z,15.86
2023-10-13T05:52:58.332Z,15.79
2023-10-13T05:55:45.985Z,15.50
2023-10-13T05:58:33.534Z,15.32
2023-10-13T06:01:20.660Z,15.25
2023-10-13T06:04:07.526Z,15.31
2023-10-13T06:06:56.943Z,15.35
2023-10-13T06:09:44.846Z,15.41
2023-10-13T06:12:31.006Z,15.52
2023-10-13T06:15:17.912Z,15.60
2023-10-13T06:18:04.734Z,15.73
2023-10-13T06:20:52.397Z,15.83
2023-10-13T06:23:39.247Z,15.92
2023-10-13T06:26:25.842Z,15.97
2023-10-13T06:28:54.199Z,16.04
2023-10-13T06:31:27.582Z,16.16
2023-10-13T06:33:57.332Z,16.27
2023-10-13T06:36:25.549Z,16.40
2023-10-13T06:38:57.149Z,16.56
2023-10-13T06:41:42.971Z,16.63
2023-10-13T06:44:16.910Z,16.81
2023-10-13T06:46:45.727Z,16.89
2023-10-13T06:49:15.620Z,16.98
2023-10-13T06:51:43.779Z,16.98
2023-10-13T06:54:21.685Z,17.09
2023-10-13T06:56:54.237Z,17.15
2023-10-13T06:59:28.314Z,17.24
2023-10-13T07:02:09.259Z,17.38
2023-10-13T07:05:13.299Z,17.37
2023-10-13T07:07:42.450Z,17.44
2023-10-13T07:10:13.199Z,17.44
2023-10-13T07:12:44.710Z,17.40
2023-10-13T07:15:20.957Z,17.48
2023-10-13T07:17:49.581Z,17.58
2023-10-13T07:20:26.582Z,17.69
2023-10-13T07:23:07.702Z,17.75
2023-10-13T07:25:39.025Z,17.90
2023-10-13T07:28:11.835Z,17.97
2023-10-13T07:31:05.083Z,18.17
2023-10-13T07:33:33.802Z,18.36
2023-10-13T07:36:02.912Z,18.51
2023-10-13T07:38:39.357Z,18.54
2023-10-13T07:41:10.199Z,18.57
2023-10-13T07:43:41.193Z,18.61
2023-10-13T07:46:11.135Z,18.64
2023-10-13T07:48:39.676Z,18.72
2023-10-13T07:51:15.201Z,18.79
2023-10-13T07:53:50.254Z,18.84
2023-10-13T07:56:20.614Z,18.94
2023-10-13T07:58:54.616Z,18.85
2023-10-13T08:01:23.159Z,18.96
2023-10-13T08:04:06.281Z,18.93
2023-10-13T08:06:35.812Z,19.05
2023-10-13T08:09:10.691Z,19.10
2023-10-13T08:11:38.945Z,19.20
2023-10-13T08:16:56.810Z,19.60
2023-10-13T08:19:33.773Z,19.63
2023-10-13T08:22:25.149Z,19.80
2023-10-13T08:24:54.320Z,19.74
2023-10-13T08:27:41.304Z,19.85
2023-10-13T08:30:30.204Z,20.09
2023-10-13T08:33:00.724Z,20.06
2023-10-13T08:35:35.804Z,20.16
2023-10-13T08:38:26.957Z,20.22
2023-10-13T08:41:01.532Z,20.20
2023-10-13T08:43:45.331Z,20.30
2023-10-13T08:46:36.238Z,20.42
2023-10-13T08:49:19.986Z,20.60
2023-10-13T08:51:52.849Z,20.52
2023-10-13T08:54:36.099Z,20.36
2023-10-13T08:57:22.973Z,20.22
2023-10-13T09:00:16.960Z,19.91
2023-10-13T09:03:03.775Z,19.72
2023-10-13T09:05:43.485Z,19.52
2023-10-13T09:08:17.549Z,19.56
2023-10-13T09:11:07.251Z,19.74
2023-10-13T09:13:47.505Z,19.96
2023-10-13T09:16:39.333Z,20.20
2023-10-13T09:19:07.404Z,20.38
2023-10-13T09:21:42.596Z,20.38
2023-10-13T09:24:24.501Z,20.39
2023-10-13T09:26:57.832Z,20.47
2023-10-13T09:29:26.422Z,20.47
2023-10-13T09:32:04.205Z,20.51
2023-10-13T09:34:42.129Z,20.48
2023-10-13T09:37:15.581Z,20.54
2023-10-13T09:39:54.054Z,20.64
2023-10-13T09:42:25.251Z,20.66
2023-10-13T09:44:57.074Z,20.60
2023-10-13T09:47:32.523Z,20.58
2023-10-13T09:50:16.847Z,20.57
2023-10-13T09:52:47.331Z,20.62
2023-10-13T09:55:21.565Z,20.74
2023-10-13T09:58:11.100Z,20.85
2023-10-13T10:00:49.957Z,20.86
2023-10-13T10:03:36.244Z,20.93
2023-10-13T10:06:05.121Z,20.75
2023-10-13T10:08:35.318Z,20.45
2023-10-13T10:11:29.366Z,20.09
2023-10-13T10:14:15.737Z,19.74
2023-10-13T10:17:09.768Z,19.55
2023-10-13T10:19:58.500Z,19.45
2023-10-13T10:22:39.937Z,19.33
2023-10-13T10:25:09.153Z,19.43
2023-10-13T10:27:37.320Z,19.59
2023-10-13T10:30:05.939Z,19.85
2023-10-13T10:32:38.331Z,20.03
2023-10-13T10:35:16.647Z,20.13
2023-10-13T10:37:48.505Z,20.17
2023-10-13T10:40:48.347Z,20.09
2023-10-13T10:43:32.444Z,19.83
2023-10-13T10:46:02.018Z,19.60
2023-10-13T10:48:35.690Z,19.41
2023-10-13T10:51:16.023Z,19.28
2023-10-13T10:53:47.992Z,19.23
2023-10-13T10:56:42.988Z,19.20
2023-10-13T10:59:20.335Z,19.27
2023-10-13T11:01:49.121Z,19.34
2023-10-13T11:04:21.044Z,19.43
2023-10-13T11:06:56.358Z,19.41
2023-10-13T11:09:47.538Z,19.33
2023-10-13T11:12:16.792Z,19.38
2023-10-13T11:14:48.588Z,19.37
2023-10-13T11:17:28.218Z,19.43
2023-10-13T11:19:57.413Z,19.48
2023-10-13T11:22:33.998Z,19.39
2023-10-13T11:25:14.450Z,19.35
2023-10-13T11:27:52.472Z,19.47
2023-10-13T11:30:22.150Z,19.65
2023-10-13T11:33:07.611Z,19.72
2023-10-13T11:35:55.974Z,19.73
2023-10-13T11:38:29.115Z,19.62
2023-10-13T11:41:06.332Z,19.59
2023-10-13T11:43:57.780Z,19.64
2023-10-13T11:46:39.747Z,19.71
2023-10-13T11:49:14.705Z,19.74
2023-10-13T11:51:46.867Z,19.82
2023-10-13T11:54:16.803Z,19.85
2023-10-13T11:56:48.154Z,19.84
2023-10-13T11:59:19.862Z,19.82
2023-10-13T12:02:10.655Z,19.81
2023-10-13T12:04:45.408Z,19.75
2023-10-13T12:07:19.414Z,19.67
2023-10-13T12:09:58.103Z,19.60
2023-10-13T12:12:28.080Z,19.50
2023-10-13T12:14:57.434Z,19.43
2023-10-13T12:17:29.651Z,19.39
2023-10-13T12:19:58.723Z,19.43
2023-10-13T12:22:30.152Z,19.48
2023-10-13T12:24:58.433Z,19.53
2023-10-13T12:27:36.495Z,19.55
2023-10-13T12:30:09.683Z,19.51
2023-10-13T12:32:38.333Z,19.51
2023-10-13T12:35:06.838Z,19.56
2023-10-13T12:37:37.851Z,19.60
2023-10-13T12:40:36.256Z,19.66
2023-10-13T12:43:26.806Z,19.69
2023-10-13T12:46:17.521Z,19.74
2023-10-13T12:49:00.538Z,19.75
2023-10-13T12:51:34.570Z,19.73
2023-10-13T12:54:07.172Z,19.66
2023-10-13T12:56:36.033Z,19.54
2023-10-13T12:59:12.986Z,19.43
2023-10-13T13:01:45.051Z,19.29
2023-10-13T13:04:20.141Z,19.24
2023-10-13T13:06:49.823Z,19.27
2023-10-13T13:09:27.423Z,19.31
2023-10-13T13:12:00.048Z,19.25
2023-10-13T13:14:30.987Z,19.27
2023-10-13T13:17:06.390Z,19.31
2023-10-13T13:19:43.254Z,19.32
2023-10-13T13:22:14.596Z,19.29
2023-10-13T13:24:46.334Z,19.19
2023-10-13T13:27:21.287Z,19.10
2023-10-13T13:29:49.437Z,19.04
2023-10-13T13:32:26.592Z,18.93
2023-10-13T13:35:07.661Z,18.79
2023-10-13T13:37:36.403Z,18.67
2023-10-13T13:40:23.796Z,18.52
2023-10-13T13:42:51.976Z,18.28
2023-10-13T13:45:28.867Z,18.10
2023-10-13T13:47:57.389Z,18.03
2023-10-13T13:50:31.009Z,17.98
2023-10-13T13:52:59.569Z,17.91
2023-10-13T13:55:32.848Z,17.94
2023-10-13T13:58:01.018Z,17.93
2023-10-13T14:00:49.950Z,17.91
2023-10-13T14:03:38.234Z,17.85
2023-10-13T14:06:07.937Z,17.78
2023-10-13T14:08:36.250Z,17.70
2023-10-13T14:11:14.423Z,17.64
2023-10-13T14:13:52.602Z,17.65
2023-10-13T14:16:25.896Z,17.62
2023-10-13T14:18:54.892Z,17.58
2023-10-13T14:21:25.967Z,17.58
2023-10-13T14:23:57.443Z,17.56
2023-10-13T14:26:27.194Z,17.55
2023-10-13T14:29:09.716Z,17.55
2023-10-13T14:31:43.837Z,17.50
2023-10-13T14:34:12.567Z,17.47
2023-10-13T14:36:40.560Z,17.45
2023-10-13T14:39:12.242Z,17.40
2023-10-13T14:41:41.388Z,17.34
2023-10-13T14:44:10.671Z,17.30
2023-10-13T14:46:40.879Z,17.25
2023-10-13T14:49:09.745Z,17.27
2023-10-13T14:51:41.494Z,17.26
2023-10-13T14:54:10.048Z,17.21
2023-10-13T14:56:38.141Z,17.17
2023-10-13T14:59:06.598Z,17.16
2023-10-13T15:01:37.024Z,17.12
2023-10-13T15:04:06.520Z,17.07
2023-10-13T15:06:34.859Z,17.04
2023-10-13T15:09:05.416Z,17.03
2023-10-13T15:11:47.161Z,16.95
2023-10-13T15:14:17.777Z,16.92
2023-10-13T15:16:46.072Z,16.90
2023-10-13T15:19:14.744Z,16.86
2023-10-13T15:21:43.755Z,16.86
2023-10-13T15:24:24.681Z,16.83
2023-10-13T15:26:58.717Z,16.81
2023-10-13T15:29:28.010Z,16.83
2023-10-13T15:32:02.674Z,16.79
2023-10-13T15:34:32.683Z,16.76
2023-10-13T15:37:06.529Z,16.74
2023-10-13T15:39:34.704Z,16.78
2023-10-13T15:42:03.954Z,16.76
2023-10-13T15:44:36.180Z,16.74
2023-10-13T15:48:14.151Z,16.70
2023-10-13T15:49:54.918Z,16.66
2023-10-13T15:52:23.487Z,16.64
2023-10-13T15:54:51.833Z,16.62
2023-10-13T15:57:20.104Z,16.57
2023-10-13T15:59:48.564Z,16.53
2023-10-13T16:02:21.224Z,16.48
2023-10-13T16:04:49.745Z,16.44
2023-10-13T16:07:19.503Z,16.40
2023-10-13T16:09:47.548Z,16.37
2023-10-13T16:12:16.869Z,16.35
2023-10-13T16:14:45.231Z,16.32
2023-10-13T16:17:16.101Z,16.28
2023-10-13T16:19:45.002Z,16.24
2023-10-13T16:22:12.794Z,16.19
2023-10-13T16:24:41.083Z,16.15
2023-10-13T16:27:08.998Z,16.09
2023-10-13T16:29:37.113Z,15.98
2023-10-13T16:32:05.682Z,15.82
2023-10-13T16:34:34.252Z,15.69
2023-10-13T16:37:06.434Z,15.55
2023-10-13T16:39:34.758Z,15.39
2023-10-13T16:42:02.622Z,15.30
2023-10-13T16:44:31.778Z,15.18
2023-10-13T16:47:02.573Z,15.11
2023-10-13T16:49:31.906Z,15.02
2023-10-13T16:52:02.059Z,14.96
2023-10-13T16:54:30.522Z,14.84
2023-10-13T16:57:17.807Z,14.75
2023-10-13T16:59:48.976Z,14.63
2023-10-13T17:02:16.977Z,14.58
2023-10-13T17:04:45.463Z,14.54
2023-10-13T17:07:15.797Z,14.42
2023-10-13T17:09:46.888Z,14.31
2023-10-13T17:12:15.501Z,14.19
2023-10-13T17:14:45.367Z,14.14
2023-10-13T17:17:13.061Z,14.07
2023-10-13T17:19:51.318Z,14.04
2023-10-13T17:22:21.125Z,13.89
2023-10-13T17:24:50.093Z,13.80
2023-10-13T17:27:18.612Z,13.72
2023-10-13T17:29:47.225Z,13.64
2023-10-13T17:32:18.328Z,13.53
2023-10-13T17:34:46.384Z,13.48
2023-10-13T17:37:14.352Z,13.45
2023-10-13T17:39:42.590Z,13.40
2023-10-13T17:42:14.508Z,13.33
2023-10-13T17:44:43.066Z,13.21
2023-10-13T17:47:18.407Z,13.14
2023-10-13T17:49:47.054Z,13.06
2023-10-13T17:52:15.521Z,13.03
2023-10-13T17:54:44.006Z,12.94
2023-10-13T17:57:12.337Z,12.93
2023-10-13T17:59:40.526Z,12.88
2023-10-13T18:02:09.124Z,12.84
2023-10-13T18:04:37.567Z,12.79
2023-10-13T18:07:06.635Z,12.72
2023-10-13T18:09:34.995Z,12.67
2023-10-13T18:12:05.763Z,12.64
2023-10-13T18:14:34.063Z,12.62
2023-10-13T18:17:05.325Z,12.62
2023-10-13T18:19:35.402Z,12.58
2023-10-13T18:22:05.074Z,12.51
2023-10-13T18:24:33.296Z,12.47
2023-10-13T18:27:01.853Z,12.47
2023-10-13T18:29:30.542Z,12.46
2023-10-13T18:32:00.604Z,12.45
2023-10-13T18:34:29.600Z,12.42
2023-10-13T18:37:01.347Z,12.33
2023-10-13T18:39:35.531Z,12.24
2023-10-13T18:42:07.230Z,12.15
2023-10-13T18:44:35.436Z,12.17
2023-10-13T18:47:03.419Z,12.16
2023-10-13T18:49:31.881Z,12.15
2023-10-13T18:51:59.869Z,12.14
2023-10-13T18:54:27.975Z,12.18
2023-10-13T18:56:56.528Z,12.25
2023-10-13T18:59:24.862Z,12.38
2023-10-13T19:01:53.962Z,12.52
2023-10-13T19:04:22.537Z,12.59
2023-10-13T19:06:50.538Z,12.68
2023-10-13T19:09:26.947Z,12.80
2023-10-13T19:11:57.416Z,12.86
2023-10-13T19:14:25.860Z,12.90
2023-10-13T19:16:58.923Z,12.93
2023-10-13T19:19:28.164Z,12.97
2023-10-13T19:21:59.223Z,12.99
2023-10-13T19:24:32.938Z,12.98
2023-10-13T19:27:01.566Z,12.94
2023-10-13T19:29:30.797Z,12.90
2023-10-13T19:32:01.711Z,12.80
2023-10-13T19:34:30.183Z,12.67
2023-10-13T19:37:04.989Z,12.50
2023-10-13T19:39:42.273Z,12.34
2023-10-13T19:42:10.768Z,12.23
2023-10-13T19:44:39.485Z,12.16
2023-10-13T19:47:07.912Z,12.11
2023-10-13T19:49:39.287Z,12.08
2023-10-13T19:52:08.340Z,12.09
2023-10-13T19:54:40.374Z,12.15
2023-10-13T19:57:12.652Z,12.16
2023-10-13T19:59:42.588Z,12.16
2023-10-13T20:02:11.221Z,12.18
2023-10-13T20:04:40.349Z,12.19
2023-10-13T20:07:09.125Z,12.20
2023-10-13T20:09:37.259Z,12.19
2023-10-13T20:12:05.524Z,12.14
2023-10-13T20:14:33.907Z,12.14
2023-10-13T20:17:02.257Z,12.19
2023-10-13T20:19:30.720Z,12.20
2023-10-13T20:22:05.962Z,12.26
2023-10-13T20:24:34.186Z,12.38
2023-10-13T20:27:02.986Z,12.35
2023-10-13T20:29:31.137Z,12.31
2023-10-13T20:32:01.302Z,12.39
2023-10-13T20:34:31.906Z,12.47
2023-10-13T20:37:00.357Z,12.58
2023-10-13T20:39:38.084Z,12.65
2023-10-13T20:42:06.359Z,12.73
2023-10-13T20:44:41.613Z,12.71
2023-10-13T20:47:14.630Z,12.73
2023-10-13T20:49:44.968Z,12.80
2023-10-13T20:54:57.556Z,12.86
2023-10-13T20:57:28.216Z,12.89
2023-10-13T20:59:57.760Z,12.96
2023-10-13T21:02:25.944Z,12.94
2023-10-13T21:04:54.240Z,12.91
2023-10-13T21:07:22.990Z,12.96
2023-10-13T21:09:51.576Z,12.95
2023-10-13T21:12:19.443Z,12.92
2023-10-13T21:14:48.081Z,12.89
2023-10-13T21:17:16.444Z,12.93
2023-10-13T21:19:44.511Z,12.93
2023-10-13T21:22:12.714Z,12.99
2023-10-13T21:24:40.625Z,13.02
2023-10-13T21:27:08.948Z,13.07
2023-10-13T21:29:39.292Z,13.13
2023-10-13T21:32:09.700Z,13.21
2023-10-13T21:34:37.944Z,13.19
2023-10-13T21:37:06.454Z,13.05
2023-10-13T21:39:47.607Z,12.87
2023-10-13T21:42:16.848Z,12.74
2023-10-13T21:45:11.938Z,12.68
2023-10-13T21:47:40.740Z,12.63
2023-10-13T21:50:18.150Z,12.57
2023-10-13T21:52:46.903Z,12.54
2023-10-13T21:55:19.579Z,12.55
2023-10-13T21:57:54.655Z,12.59
2023-10-13T22:00:27.601Z,12.61
2023-10-13T22:02:57.828Z,12.51
2023-10-13T22:05:26.082Z,12.43
2023-10-13T22:07:54.485Z,12.35
2023-10-13T22:10:22.609Z,12.19
2023-10-13T22:12:51.052Z,12.11
2023-10-13T22:15:22.364Z,12.02
2023-10-13T22:17:51.622Z,12.01
2023-10-13T22:20:23.328Z,12.01
2023-10-13T22:22:52.359Z,11.98
2023-10-13T22:25:21.779Z,12.01
2023-10-13T22:27:50.657Z,12.07
2023-10-13T22:30:19.777Z,12.10
2023-10-13T22:32:51.414Z,12.07
2023-10-13T22:35:20.139Z,12.00
2023-10-13T22:37:53.816Z,11.90
2023-10-13T22:40:24.005Z,11.87
2023-10-13T22:42:54.012Z,11.85
2023-10-13T22:45:23.925Z,11.88
2023-10-13T22:47:56.236Z,11.88
2023-10-13T22:50:26.444Z,11.90
2023-10-13T22:52:59.976Z,11.89
2023-10-13T22:55:29.164Z,11.90
2023-10-13T22:57:58.349Z,11.90
2023-10-13T23:00:48.542Z,11.91
2023-10-13T23:03:19.229Z,11.86
2023-10-13T23:05:53.060Z,11.82
2023-10-13T23:08:23.999Z,11.71
2023-10-13T23:10:57.129Z,11.68
2023-10-13T23:13:25.895Z,11.54
2023-10-13T23:15:55.173Z,11.42
2023-10-13T23:18:25.238Z,11.34
2023-10-13T23:20:54.044Z,11.30
2023-10-13T23:23:26.435Z,11.29
2023-10-13T23:25:55.191Z,11.30
2023-10-13T23:28:35.831Z,11.30
2023-10-13T23:31:06.418Z,11.29
2023-10-13T23:33:34.647Z,11.28
2023-10-13T23:36:04.498Z,11.29
2023-10-13T23:38:35.576Z,11.27
2023-10-13T23:41:06.352Z,11.23
2023-10-13T23:43:44.485Z,11.19
2023-10-13T23:46:16.079Z,11.15
2023-10-13T23:48:47.116Z,11.10
2023-10-13T23:51:21.794Z,11.05
2023-10-13T23:53:50.624Z,11.02
2023-10-13T23:56:30.538Z,10.95
2023-10-13T23:59:06.692Z,10.80
